Time;durP1;ratioP1;P1;durP2;ratioP2;P2;SDS_P1;SDS_P2;PMS_P1;PMS_P2;Temp;Humidity;BMP_temperature;BMP_pressure;BME280_temperature;BME280_humidity;BME280_pressure;Samples;Min_cycle;Max_cycle;Signal;HPM_P1;HPM_P2
2022/12/14 00:02:06;;;;;;;5.27;4.97;;;-0.30;99.90;;;;;;4931788;28;20215;-62
2022/12/14 00:04:35;;;;;;;5.53;5.13;;;-0.40;99.90;;;;;;4932836;28;20584;-62
2022/12/14 00:07:01;;;;;;;4.90;4.60;;;-0.40;99.90;;;;;;4933354;28;20228;-62
2022/12/14 00:09:29;;;;;;;5.23;4.93;;;-0.40;99.90;;;;;;4931893;28;20224;-63
2022/12/14 00:12:01;;;;;;;5.30;5.00;;;-0.40;99.90;;;;;;4930868;28;20208;-63
2022/12/14 00:14:34;;;;;;;5.30;5.00;;;-0.30;99.90;;;;;;4923274;28;20232;-64
2022/12/14 00:17:07;;;;;;;4.57;4.27;;;-0.30;99.90;;;;;;4930212;28;20231;-65
2022/12/14 00:19:36;;;;;;;4.70;4.40;;;-0.20;99.90;;;;;;4927459;29;20204;-63
2022/12/14 00:22:08;;;;;;;5.23;4.93;;;-0.20;99.90;;;;;;4932692;28;20247;-64
2022/12/14 00:24:35;;;;;;;4.87;4.57;;;-0.20;99.90;;;;;;4930447;29;20633;-64
2022/12/14 00:27:10;;;;;;;4.50;4.30;;;-0.10;99.90;;;;;;4929900;29;20884;-62
2022/12/14 00:29:45;;;;;;;4.60;4.30;;;0.00;99.90;;;;;;4936685;28;20207;-63
2022/12/14 00:32:17;;;;;;;4.57;4.27;;;0.10;99.90;;;;;;4931150;28;20215;-64
2022/12/14 00:34:50;;;;;;;4.60;4.30;;;0.30;99.90;;;;;;4931380;28;20207;-64
2022/12/14 00:37:18;;;;;;;4.67;4.37;;;0.20;99.90;;;;;;4931307;28;20238;-63
2022/12/14 00:39:48;;;;;;;4.57;4.27;;;0.20;99.90;;;;;;4925958;29;20239;-63
2022/12/14 00:42:16;;;;;;;4.20;3.90;;;0.10;99.90;;;;;;4931888;29;20196;-63
2022/12/14 00:44:43;;;;;;;5.00;4.70;;;0.00;99.90;;;;;;4931565;29;20261;-63
2022/12/14 00:47:17;;;;;;;5.07;4.57;;;0.00;99.90;;;;;;4933326;29;20315;-64
2022/12/14 00:49:51;;;;;;;4.73;4.43;;;0.00;99.90;;;;;;4934140;28;20279;-63
2022/12/14 00:52:19;;;;;;;5.00;4.70;;;0.10;99.90;;;;;;4933105;29;20216;-62
2022/12/14 00:54:46;;;;;;;4.63;4.33;;;0.00;99.90;;;;;;4927901;28;20208;-64
2022/12/14 00:57:16;;;;;;;4.57;4.27;;;0.00;99.90;;;;;;4931707;28;20351;-63
2022/12/14 00:59:47;;;;;;;4.97;4.67;;;-0.10;99.90;;;;;;4931447;28;20211;-63
2022/12/14 01:02:15;;;;;;;4.37;4.07;;;0.10;99.90;;;;;;4924009;28;20212;-63
2022/12/14 01:04:43;;;;;;;4.63;4.33;;;0.10;99.90;;;;;;4937005;28;20290;-63
2022/12/14 01:07:17;;;;;;;4.43;4.20;;;0.30;99.90;;;;;;4929437;29;20255;-64
2022/12/14 01:09:54;;;;;;;4.70;4.40;;;0.20;99.90;;;;;;4945888;28;20226;-64
2022/12/14 01:12:24;;;;;;;4.63;4.33;;;0.10;99.90;;;;;;4940823;28;20208;-63
2022/12/14 01:14:56;;;;;;;4.03;3.83;;;0.00;99.90;;;;;;4936368;29;20298;-64
2022/12/14 01:17:34;;;;;;;4.30;4.10;;;0.10;99.90;;;;;;4941235;28;20251;-63
2022/12/14 01:20:09;;;;;;;4.23;3.93;;;0.20;99.90;;;;;;4931194;29;20200;-63
2022/12/14 01:22:41;;;;;;;4.50;4.20;;;0.30;99.90;;;;;;4920165;28;20212;-63
2022/12/14 01:25:09;;;;;;;4.70;4.40;;;0.40;99.90;;;;;;4958492;28;20212;-62
2022/12/14 01:27:36;;;;;;;4.73;4.43;;;0.40;99.90;;;;;;4930754;28;20231;-62
2022/12/14 01:30:07;;;;;;;5.13;4.65;;;0.40;99.90;;;;;;4932712;29;20232;-63
2022/12/14 01:32:35;;;;;;;4.60;4.30;;;0.40;99.90;;;;;;4928404;28;20900;-63
2022/12/14 01:35:06;;;;;;;4.17;3.97;;;0.40;99.90;;;;;;4930119;29;20262;-64
2022/12/14 01:37:34;;;;;;;4.10;3.80;;;0.40;99.90;;;;;;4925085;28;20713;-64
2022/12/14 01:40:03;;;;;;;4.57;4.27;;;0.50;99.90;;;;;;4927223;28;20346;-63
2022/12/14 01:42:35;;;;;;;4.50;4.20;;;0.60;99.90;;;;;;4925794;28;20204;-64
2022/12/14 01:45:07;;;;;;;4.70;4.40;;;0.60;99.90;;;;;;4929602;28;20629;-63
2022/12/14 01:47:40;;;;;;;4.60;4.27;;;0.50;99.90;;;;;;4932039;28;20311;-63
2022/12/14 01:50:21;;;;;;;4.67;4.37;;;0.40;99.90;;;;;;4936977;28;20203;-63
2022/12/14 01:52:52;;;;;;;5.30;5.00;;;0.30;99.90;;;;;;4935162;29;20270;-63
2022/12/14 01:55:24;;;;;;;4.43;4.23;;;0.20;99.90;;;;;;4936628;28;20208;-63
2022/12/14 01:58:02;;;;;;;4.93;4.63;;;0.10;99.90;;;;;;4942299;28;20665;-65
2022/12/14 02:00:29;;;;;;;4.33;4.10;;;0.10;99.90;;;;;;4933577;28;20211;-64
2022/12/14 02:02:59;;;;;;;4.53;4.23;;;0.10;99.90;;;;;;4936211;29;20586;-63
2022/12/14 02:05:26;;;;;;;4.53;4.23;;;0.20;99.90;;;;;;4936893;28;20679;-64
2022/12/14 02:07:54;;;;;;;4.80;4.50;;;0.10;99.90;;;;;;4936664;29;20597;-64
2022/12/14 02:10:26;;;;;;;5.50;5.10;;;0.20;99.90;;;;;;4951371;28;20689;-64
2022/12/14 02:12:59;;;;;;;4.63;4.33;;;0.10;99.90;;;;;;4936129;28;20580;-65
2022/12/14 02:15:25;;;;;;;4.87;4.57;;;0.10;99.90;;;;;;4936490;28;20208;-65
2022/12/14 02:17:52;;;;;;;4.13;3.93;;;0.20;99.90;;;;;;4936182;29;20728;-64
2022/12/14 02:20:22;;;;;;;4.70;4.40;;;0.30;99.90;;;;;;4936472;28;20645;-63
2022/12/14 02:23:34;;;;;;;4.80;4.50;;;0.40;99.90;;;;;;4936483;29;20814;-65
2022/12/14 02:26:37;;;;;;;4.33;4.03;;;0.50;99.90;;;;;;4929158;28;20210;-63
2022/12/14 02:29:33;;;;;;;4.80;4.50;;;0.50;99.90;;;;;;4931823;28;20735;-63
2022/12/14 02:32:15;;;;;;;5.13;4.83;;;0.40;99.90;;;;;;4936963;29;20204;-64
2022/12/14 02:34:52;;;;;;;4.60;4.37;;;0.20;99.90;;;;;;4930647;28;20212;-63
2022/12/14 02:37:25;;;;;;;4.67;4.27;;;0.20;99.90;;;;;;4937071;29;20250;-64
2022/12/14 02:40:01;;;;;;;4.90;4.60;;;0.30;99.90;;;;;;4935611;29;20200;-63
2022/12/14 02:42:41;;;;;;;4.27;3.97;;;0.20;99.90;;;;;;4922153;28;20207;-64
2022/12/14 02:45:17;;;;;;;5.10;4.70;;;0.30;99.90;;;;;;4936791;28;20794;-63
2022/12/14 02:47:53;;;;;;;4.90;4.60;;;0.20;99.90;;;;;;4936402;28;20740;-65
2022/12/14 02:50:24;;;;;;;4.80;4.50;;;0.20;99.90;;;;;;4936576;28;20196;-63
2022/12/14 02:53:02;;;;;;;4.63;4.40;;;0.20;99.90;;;;;;4935906;28;20300;-65
2022/12/14 02:55:33;;;;;;;5.23;4.93;;;0.20;99.90;;;;;;4925776;28;20223;-65
2022/12/14 02:58:03;;;;;;;5.07;4.67;;;0.20;99.90;;;;;;4934118;29;20359;-62
2022/12/14 03:00:41;;;;;;;4.80;4.50;;;0.20;99.90;;;;;;4932982;28;20660;-62
2022/12/14 03:03:11;;;;;;;4.83;4.53;;;0.20;99.90;;;;;;4928908;28;20323;-63
2022/12/14 03:05:40;;;;;;;4.87;4.57;;;0.20;99.90;;;;;;4933358;28;20383;-63
2022/12/14 03:08:10;;;;;;;4.77;4.47;;;0.20;99.90;;;;;;4934326;28;20240;-63
2022/12/14 03:10:43;;;;;;;4.97;4.67;;;0.10;99.90;;;;;;4941660;29;20212;-64
2022/12/14 03:13:17;;;;;;;4.93;4.63;;;0.10;99.90;;;;;;4945959;28;20291;-63
2022/12/14 03:15:51;;;;;;;4.20;3.90;;;0.20;99.90;;;;;;4945758;28;20291;-64
2022/12/14 03:18:21;;;;;;;4.50;4.30;;;0.30;99.90;;;;;;4944290;29;20300;-63
2022/12/14 03:20:52;;;;;;;4.90;4.60;;;0.40;99.90;;;;;;4943503;28;20299;-63
2022/12/14 03:23:21;;;;;;;4.43;4.23;;;0.50;99.90;;;;;;4932862;28;20208;-65
2022/12/14 03:25:52;;;;;;;3.70;3.50;;;0.60;99.90;;;;;;4938236;28;20267;-63
2022/12/14 03:28:24;;;;;;;4.70;4.40;;;0.60;99.90;;;;;;4942079;28;20232;-64
2022/12/14 03:30:57;;;;;;;3.63;3.43;;;0.70;99.90;;;;;;4937985;28;20204;-64
2022/12/14 03:33:27;;;;;;;4.50;4.20;;;0.70;99.90;;;;;;4932315;28;20197;-63
2022/12/14 03:35:58;;;;;;;4.40;4.10;;;0.70;99.90;;;;;;4932575;28;20210;-63
2022/12/14 03:38:32;;;;;;;4.40;4.10;;;0.80;99.90;;;;;;4934120;28;20541;-63
2022/12/14 03:41:08;;;;;;;4.43;4.13;;;0.80;99.90;;;;;;4934704;28;20208;-62
2022/12/14 03:43:41;;;;;;;4.10;3.87;;;0.80;99.90;;;;;;4925969;29;20200;-64
2022/12/14 03:46:14;;;;;;;4.87;4.53;;;0.80;99.90;;;;;;4931393;28;20216;-62
2022/12/14 03:48:48;;;;;;;4.07;3.87;;;0.80;99.90;;;;;;4932759;28;20228;-63
2022/12/14 03:51:23;;;;;;;3.93;3.70;;;0.80;99.90;;;;;;4957314;28;20207;-63
2022/12/14 03:53:59;;;;;;;3.87;3.67;;;0.80;99.90;;;;;;4932390;28;20210;-65
2022/12/14 03:56:35;;;;;;;4.07;3.87;;;0.90;99.90;;;;;;4931946;28;20211;-65
2022/12/14 03:59:09;;;;;;;4.00;3.80;;;0.90;99.90;;;;;;4932001;28;20204;-64
2022/12/14 04:01:43;;;;;;;4.30;4.00;;;0.90;99.90;;;;;;4929381;28;20214;-63
2022/12/14 04:04:15;;;;;;;4.00;3.80;;;0.90;99.90;;;;;;4931443;28;20208;-64
2022/12/14 04:06:49;;;;;;;4.17;3.87;;;0.90;99.90;;;;;;4933586;29;20216;-63
2022/12/14 04:09:26;;;;;;;3.90;3.70;;;1.00;99.90;;;;;;4940465;29;20228;-64
2022/12/14 04:20:22;;;;;;;4.33;4.07;;;1.00;99.90;;;;;;4932533;28;20215;-63
2022/12/14 04:22:55;;;;;;;4.17;3.90;;;1.00;99.90;;;;;;4932336;28;20200;-64
2022/12/14 04:31:01;;;;;;;4.30;4.10;;;1.10;99.90;;;;;;4930252;28;20204;-63
2022/12/14 04:33:49;;;;;;;4.47;4.27;;;1.00;99.90;;;;;;4925034;28;20616;-64
2022/12/14 04:36:21;;;;;;;4.23;3.93;;;1.10;99.90;;;;;;4930042;28;20688;-63
2022/12/14 04:38:54;;;;;;;3.97;3.77;;;1.10;99.90;;;;;;4931686;28;20219;-65
2022/12/14 04:41:24;;;;;;;3.93;3.73;;;1.10;99.90;;;;;;4931379;28;20207;-63
2022/12/14 04:43:56;;;;;;;4.20;3.90;;;1.10;99.90;;;;;;4930449;28;20208;-65
2022/12/14 04:46:26;;;;;;;4.60;4.30;;;1.00;99.90;;;;;;4931811;28;21487;-63
2022/12/14 04:49:01;;;;;;;4.30;4.10;;;0.80;99.90;;;;;;4931387;28;20232;-62
2022/12/14 04:51:32;;;;;;;5.10;4.80;;;0.70;99.90;;;;;;4931648;28;20204;-64
2022/12/14 04:54:04;;;;;;;4.90;4.60;;;0.50;99.90;;;;;;4931512;28;20210;-64
2022/12/14 04:56:36;;;;;;;5.40;5.10;;;0.40;99.90;;;;;;4940132;28;20209;-63
2022/12/14 04:59:03;;;;;;;5.30;5.00;;;0.40;99.90;;;;;;4972580;28;20279;-63
2022/12/14 05:01:43;;;;;;;5.20;4.90;;;0.10;99.90;;;;;;4934110;29;20219;-63
2022/12/14 05:04:20;;;;;;;5.27;4.87;;;0.10;99.90;;;;;;4935552;29;20282;-64
2022/12/14 05:06:55;;;;;;;4.90;4.60;;;0.00;99.90;;;;;;4932537;28;20199;-64
2022/12/14 05:09:28;;;;;;;5.13;4.83;;;0.00;99.90;;;;;;4932494;28;20221;-63
2022/12/14 05:12:03;;;;;;;5.73;5.33;;;0.00;99.90;;;;;;4932180;28;20577;-63
2022/12/14 05:14:36;;;;;;;5.27;4.87;;;0.00;99.90;;;;;;4924340;29;20238;-62
2022/12/14 05:17:05;;;;;;;5.10;4.80;;;0.00;99.90;;;;;;4928834;29;20232;-64
2022/12/14 05:19:33;;;;;;;4.80;4.50;;;-0.10;99.90;;;;;;4963665;28;20212;-65
2022/12/14 05:22:05;;;;;;;5.47;5.07;;;-0.20;99.90;;;;;;4934971;28;20578;-63
2022/12/14 05:24:32;;;;;;;5.97;5.57;;;-0.20;99.90;;;;;;4923672;29;20196;-64
2022/12/14 05:26:59;;;;;;;5.77;5.37;;;-0.30;99.90;;;;;;4929472;29;20224;-63
2022/12/14 05:29:25;;;;;;;5.57;5.17;;;-0.20;99.90;;;;;;4931705;28;20610;-63
2022/12/14 05:31:52;;;;;;;5.70;5.30;;;-0.10;99.90;;;;;;4931338;28;20204;-64
2022/12/14 05:34:19;;;;;;;5.23;4.93;;;-0.10;99.90;;;;;;4928724;29;20215;-64
2022/12/14 05:36:47;;;;;;;5.20;4.90;;;-0.10;99.90;;;;;;4931648;29;20211;-63
2022/12/14 05:39:15;;;;;;;4.77;4.47;;;0.00;99.90;;;;;;4929540;29;20300;-62
2022/12/14 05:41:42;;;;;;;5.70;5.30;;;0.00;99.90;;;;;;4934340;29;20212;-64
2022/12/14 05:44:09;;;;;;;5.47;5.07;;;0.00;99.90;;;;;;4939572;28;20622;-64
2022/12/14 05:46:36;;;;;;;5.00;4.70;;;0.00;99.90;;;;;;4929296;29;20200;-65
2022/12/14 05:49:03;;;;;;;5.30;5.00;;;0.10;99.90;;;;;;4931997;28;20227;-63
2022/12/14 05:51:29;;;;;;;5.20;4.90;;;0.10;99.90;;;;;;4938876;28;20314;-64
2022/12/14 05:53:58;;;;;;;5.73;5.23;;;0.10;99.90;;;;;;4930589;28;20675;-65
2022/12/14 05:56:25;;;;;;;5.37;5.07;;;0.20;99.90;;;;;;4937841;28;20204;-62
2022/12/14 05:58:52;;;;;;;5.10;4.80;;;0.30;99.90;;;;;;4934202;28;20220;-65
2022/12/14 06:01:19;;;;;;;5.00;4.70;;;0.30;99.90;;;;;;4940380;28;20208;-62
2022/12/14 06:03:46;;;;;;;5.10;4.73;;;0.40;99.90;;;;;;4933809;28;20214;-63
2022/12/14 06:06:13;;;;;;;5.20;4.80;;;0.50;99.90;;;;;;4930623;29;20204;-64
2022/12/14 06:08:42;;;;;;;5.17;4.70;;;0.50;99.90;;;;;;4928792;28;20234;-64
2022/12/14 06:11:12;;;;;;;5.53;5.13;;;0.60;99.90;;;;;;4931703;28;20251;-64
2022/12/14 06:13:40;;;;;;;4.73;4.47;;;0.70;99.90;;;;;;4933954;28;20291;-63
2022/12/14 06:16:12;;;;;;;5.23;4.93;;;0.60;99.90;;;;;;4931475;28;20655;-66
2022/12/14 06:18:42;;;;;;;5.60;5.13;;;0.70;99.90;;;;;;4931028;29;20323;-63
2022/12/14 06:21:09;;;;;;;5.53;5.13;;;0.80;99.90;;;;;;4931079;29;20208;-64
2022/12/14 06:23:36;;;;;;;5.20;4.90;;;0.80;99.90;;;;;;4928453;29;20681;-64
2022/12/14 06:26:03;;;;;;;4.50;4.20;;;0.80;99.90;;;;;;4928490;28;20240;-62
2022/12/14 06:28:31;;;;;;;4.97;4.67;;;0.80;99.90;;;;;;4927980;29;20758;-63
2022/12/14 06:30:58;;;;;;;4.90;4.60;;;0.80;99.90;;;;;;4932028;28;20246;-62
2022/12/14 06:33:25;;;;;;;4.87;4.60;;;0.80;99.90;;;;;;4931153;28;20532;-64
2022/12/14 06:35:52;;;;;;;5.27;4.97;;;0.80;99.90;;;;;;4930638;29;20224;-64
2022/12/14 06:38:20;;;;;;;6.03;5.63;;;0.80;99.90;;;;;;4932678;29;20589;-64
2022/12/14 06:40:47;;;;;;;5.33;5.00;;;0.80;99.90;;;;;;4929714;29;20677;-64
2022/12/14 06:43:14;;;;;;;5.75;5.45;;;0.80;99.90;;;;;;4927478;28;20582;-63
2022/12/14 06:45:42;;;;;;;5.40;5.03;;;0.90;99.90;;;;;;4930430;28;20200;-63
2022/12/14 06:48:09;;;;;;;5.33;4.93;;;0.90;99.90;;;;;;4932655;28;20232;-61
2022/12/14 06:50:35;;;;;;;5.70;5.30;;;0.90;99.90;;;;;;4933378;29;20224;-64
2022/12/14 06:53:02;;;;;;;5.53;5.23;;;0.90;99.90;;;;;;4930941;28;20267;-63
2022/12/14 06:55:29;;;;;;;5.83;5.43;;;0.80;99.90;;;;;;4933506;28;20679;-63
2022/12/14 06:57:56;;;;;;;5.53;5.13;;;0.80;99.90;;;;;;4935188;28;20224;-64
2022/12/14 07:00:24;;;;;;;5.57;5.20;;;0.80;99.90;;;;;;4935841;28;20200;-62
2022/12/14 07:02:52;;;;;;;5.40;5.10;;;0.80;99.90;;;;;;4934500;28;20230;-62
2022/12/14 07:05:19;;;;;;;5.57;5.17;;;0.90;99.90;;;;;;4936030;28;20287;-62
2022/12/14 07:07:46;;;;;;;5.90;5.50;;;0.90;99.90;;;;;;4933094;28;20234;-63
2022/12/14 07:10:13;;;;;;;5.80;5.40;;;0.90;99.90;;;;;;4935278;29;20228;-63
2022/12/14 07:12:40;;;;;;;5.30;5.00;;;1.00;99.90;;;;;;4932528;28;20204;-62
2022/12/14 07:15:11;;;;;;;5.47;5.07;;;0.90;99.90;;;;;;4932457;29;20227;-63
2022/12/14 07:17:40;;;;;;;6.50;6.00;;;1.00;99.90;;;;;;4933099;28;20258;-64
2022/12/14 07:20:12;;;;;;;5.97;5.57;;;1.00;99.90;;;;;;4931955;29;20216;-64
2022/12/14 07:22:42;;;;;;;5.80;5.40;;;0.80;99.90;;;;;;4929367;29;20204;-64
2022/12/14 07:25:09;;;;;;;5.90;5.50;;;0.70;99.90;;;;;;4947077;28;20299;-62
2022/12/14 07:27:38;;;;;;;6.30;5.80;;;0.60;99.90;;;;;;4934772;29;20264;-61
2022/12/14 07:30:07;;;;;;;5.87;5.47;;;0.60;99.90;;;;;;4933151;29;20231;-62
2022/12/14 07:32:36;;;;;;;5.23;4.93;;;0.50;99.90;;;;;;4930250;28;20288;-63
2022/12/14 07:35:03;;;;;;;5.47;5.13;;;0.60;99.90;;;;;;4933139;28;20211;-63
2022/12/14 07:37:31;;;;;;;5.50;5.10;;;0.70;99.90;;;;;;4933624;29;20239;-63
2022/12/14 07:39:58;;;;;;;6.27;5.87;;;0.80;99.90;;;;;;4932765;28;20204;-61
2022/12/14 07:42:25;;;;;;;5.93;5.53;;;0.90;99.90;;;;;;4931364;29;20208;-63
2022/12/14 07:44:52;;;;;;;6.10;5.67;;;0.90;99.90;;;;;;4932733;29;20295;-63
2022/12/14 07:47:19;;;;;;;6.37;5.87;;;0.80;99.90;;;;;;4930942;28;20604;-62
2022/12/14 07:49:45;;;;;;;5.83;5.43;;;0.80;99.90;;;;;;4932643;28;20266;-62
2022/12/14 07:52:12;;;;;;;6.77;6.37;;;0.80;99.90;;;;;;4932828;28;20212;-62
2022/12/14 07:54:40;;;;;;;6.73;6.23;;;0.70;99.90;;;;;;4929901;28;20214;-63
2022/12/14 07:57:07;;;;;;;7.10;6.60;;;0.60;99.90;;;;;;4940215;28;20242;-62
2022/12/14 07:59:34;;;;;;;6.33;5.93;;;0.50;99.90;;;;;;4945104;29;20200;-63
2022/12/14 08:02:01;;;;;;;6.50;6.10;;;0.40;99.90;;;;;;4935741;29;20200;-62
2022/12/14 08:04:27;;;;;;;6.30;5.90;;;0.30;99.90;;;;;;4930431;28;20212;-63
2022/12/14 08:06:54;;;;;;;5.90;5.50;;;0.20;99.90;;;;;;4932161;28;20228;-63
2022/12/14 08:09:21;;;;;;;5.67;5.30;;;0.20;99.90;;;;;;4935539;29;20272;-63
2022/12/14 08:11:49;;;;;;;5.27;4.97;;;0.30;99.90;;;;;;4936167;28;20228;-62
2022/12/14 08:14:18;;;;;;;6.43;5.97;;;0.40;99.90;;;;;;4935499;28;20204;-63
2022/12/14 08:16:45;;;;;;;6.17;5.77;;;0.50;99.90;;;;;;4932403;28;20223;-63
2022/12/14 08:19:13;;;;;;;5.83;5.43;;;0.40;99.90;;;;;;4938506;28;20299;-62
2022/12/14 08:21:40;;;;;;;6.20;5.80;;;0.40;99.90;;;;;;4930122;29;20208;-62
2022/12/14 08:24:07;;;;;;;6.22;5.80;;;0.50;99.90;;;;;;4930430;28;20485;-62
2022/12/14 08:26:34;;;;;;;5.50;5.20;;;0.60;99.90;;;;;;4929226;29;20208;-62
2022/12/14 08:29:03;;;;;;;5.90;5.50;;;0.60;99.90;;;;;;4932039;28;20204;-63
2022/12/14 08:31:30;;;;;;;6.30;5.90;;;0.70;99.90;;;;;;4930874;28;20240;-62
2022/12/14 08:33:58;;;;;;;5.70;5.40;;;0.70;99.90;;;;;;4931047;28;20221;-62
2022/12/14 08:36:27;;;;;;;5.30;5.00;;;0.70;99.90;;;;;;4932365;28;20210;-63
2022/12/14 08:38:55;;;;;;;6.03;5.63;;;0.80;99.90;;;;;;4932065;29;20688;-62
2022/12/14 08:41:22;;;;;;;5.67;5.37;;;0.90;99.90;;;;;;4930835;28;20692;-62
2022/12/14 08:43:51;;;;;;;6.07;5.73;;;0.80;99.90;;;;;;4930345;28;20571;-63
2022/12/14 08:46:20;;;;;;;5.60;5.20;;;0.70;99.90;;;;;;4928544;28;21758;-64
2022/12/14 08:48:49;;;;;;;6.07;5.67;;;0.60;99.90;;;;;;4930897;28;20228;-61
2022/12/14 08:51:16;;;;;;;6.23;5.83;;;0.70;99.90;;;;;;4931661;28;20293;-63
2022/12/14 08:53:46;;;;;;;5.97;5.67;;;0.70;99.90;;;;;;4933838;29;20216;-62
2022/12/14 08:56:15;;;;;;;5.30;5.00;;;0.80;99.90;;;;;;4933832;28;20232;-61
2022/12/14 08:58:42;;;;;;;5.53;5.23;;;0.80;99.90;;;;;;4935367;28;20243;-63
2022/12/14 09:01:12;;;;;;;5.07;4.77;;;0.80;99.90;;;;;;4933171;29;20205;-61
2022/12/14 09:03:40;;;;;;;4.77;4.47;;;0.80;99.90;;;;;;4935575;28;20215;-62
2022/12/14 09:06:09;;;;;;;5.80;5.37;;;0.80;99.90;;;;;;4934727;28;20304;-62
2022/12/14 09:08:36;;;;;;;5.60;5.30;;;0.90;99.90;;;;;;4930429;29;20227;-63
2022/12/14 09:11:05;;;;;;;5.27;4.97;;;0.90;99.90;;;;;;4927495;28;20231;-63
2022/12/14 09:13:32;;;;;;;5.00;4.70;;;1.00;99.90;;;;;;4930509;29;20216;-63
2022/12/14 09:16:01;;;;;;;4.70;4.43;;;1.00;99.90;;;;;;4935797;28;20208;-62
2022/12/14 09:18:28;;;;;;;4.87;4.57;;;1.10;99.90;;;;;;4936162;29;20227;-61
2022/12/14 09:20:56;;;;;;;4.37;4.07;;;1.00;99.90;;;;;;4935734;29;20209;-63
2022/12/14 09:23:25;;;;;;;5.33;4.97;;;1.10;99.90;;;;;;4941746;28;20667;-63
2022/12/14 09:26:00;;;;;;;4.83;4.53;;;1.00;99.90;;;;;;4948064;29;20204;-63
2022/12/14 09:28:27;;;;;;;5.03;4.73;;;0.90;99.90;;;;;;4950990;28;20239;-63
2022/12/14 09:30:56;;;;;;;4.23;4.03;;;0.90;99.90;;;;;;4949145;29;20315;-62
2022/12/14 09:33:23;;;;;;;4.73;4.43;;;0.80;99.90;;;;;;4950437;29;20224;-63
2022/12/14 09:35:50;;;;;;;4.53;4.33;;;0.90;99.90;;;;;;4945445;28;20289;-63
2022/12/14 09:38:18;;;;;;;4.93;4.63;;;0.90;99.90;;;;;;4942214;28;20226;-63
2022/12/14 09:40:52;;;;;;;4.77;4.47;;;0.90;99.90;;;;;;4939074;29;20220;-62
2022/12/14 09:43:30;;;;;;;5.00;4.70;;;1.00;99.90;;;;;;4936467;28;20204;-63
2022/12/14 09:46:06;;;;;;;4.80;4.50;;;0.90;99.90;;;;;;4936786;28;20203;-63
2022/12/14 09:48:33;;;;;;;4.90;4.60;;;1.00;99.90;;;;;;4924534;28;20612;-63
2022/12/14 09:51:00;;;;;;;4.53;4.23;;;0.90;99.90;;;;;;4930866;28;20724;-63
2022/12/14 09:53:28;;;;;;;4.80;4.50;;;0.90;99.90;;;;;;4931409;28;20211;-62
2022/12/14 09:55:57;;;;;;;4.87;4.57;;;0.90;99.90;;;;;;4931530;29;20209;-62
2022/12/14 09:58:26;;;;;;;5.47;5.17;;;0.90;99.90;;;;;;4931356;29;20224;-62
2022/12/14 10:00:59;;;;;;;4.70;4.40;;;0.90;99.90;;;;;;4931456;29;20280;-62
2022/12/14 10:03:42;;;;;;;5.00;4.70;;;0.80;99.90;;;;;;4930546;29;20291;-61
2022/12/14 10:06:25;;;;;;;5.30;5.00;;;0.60;99.90;;;;;;4935507;28;20219;-62
2022/12/14 10:09:03;;;;;;;5.27;4.97;;;0.60;99.90;;;;;;4932145;29;20306;-62
2022/12/14 10:11:39;;;;;;;5.00;4.70;;;0.40;99.90;;;;;;4928854;29;20266;-62
2022/12/14 10:14:17;;;;;;;5.60;5.20;;;0.40;99.90;;;;;;4934583;28;20204;-63
2022/12/14 10:16:53;;;;;;;4.90;4.60;;;0.40;99.90;;;;;;4942514;29;20302;-63
2022/12/14 10:19:31;;;;;;;5.03;4.73;;;0.40;99.90;;;;;;4926716;28;20212;-64
2022/12/14 10:22:02;;;;;;;5.47;5.17;;;0.50;99.90;;;;;;4932799;29;20665;-64
2022/12/14 10:24:37;;;;;;;5.27;4.97;;;0.50;99.90;;;;;;4934717;28;20196;-64
2022/12/14 10:27:10;;;;;;;5.20;4.90;;;0.50;99.90;;;;;;4930218;28;20273;-62
2022/12/14 10:29:41;;;;;;;5.70;5.40;;;0.50;99.90;;;;;;4933270;28;20220;-64
2022/12/14 10:32:19;;;;;;;4.97;4.67;;;0.50;99.90;;;;;;4928903;29;20235;-63
2022/12/14 10:34:46;;;;;;;5.38;5.07;;;0.50;99.90;;;;;;4927361;29;20192;-64
2022/12/14 10:37:25;;;;;;;4.87;4.57;;;0.50;99.90;;;;;;4932922;29;20234;-64
2022/12/14 10:40:03;;;;;;;5.03;4.73;;;0.60;99.90;;;;;;4933608;29;20204;-62
2022/12/14 10:42:38;;;;;;;5.10;4.80;;;0.60;99.90;;;;;;4928670;28;20664;-64
2022/12/14 10:45:21;;;;;;;4.97;4.67;;;0.60;99.90;;;;;;4932574;28;20196;-65
2022/12/14 10:47:52;;;;;;;4.80;4.50;;;0.50;99.90;;;;;;4933559;29;20232;-63
2022/12/14 10:50:25;;;;;;;5.10;4.80;;;0.40;99.90;;;;;;4930447;29;20208;-62
2022/12/14 10:52:54;;;;;;;4.17;3.97;;;0.40;99.90;;;;;;4931726;29;20203;-63
2022/12/14 10:55:29;;;;;;;4.80;4.50;;;0.50;99.90;;;;;;4932588;28;20214;-62
2022/12/14 10:57:56;;;;;;;4.40;4.20;;;0.60;99.90;;;;;;4939846;28;20319;-64
2022/12/14 11:00:23;;;;;;;4.67;4.37;;;0.60;99.90;;;;;;4932215;28;20212;-62
2022/12/14 11:02:54;;;;;;;4.97;4.67;;;0.70;99.90;;;;;;4929650;29;20224;-63
2022/12/14 11:05:28;;;;;;;4.53;4.23;;;0.80;99.90;;;;;;4929358;28;20208;-64
2022/12/14 11:07:55;;;;;;;4.17;3.97;;;0.90;99.90;;;;;;4931588;29;20552;-63
2022/12/14 11:10:26;;;;;;;4.57;4.27;;;1.00;99.90;;;;;;4932287;28;20558;-64
2022/12/14 11:13:00;;;;;;;4.67;4.27;;;1.00;99.90;;;;;;4931644;29;20666;-64
2022/12/14 11:15:32;;;;;;;4.70;4.40;;;0.90;99.90;;;;;;4931143;29;20215;-64
2022/12/14 11:18:04;;;;;;;4.40;4.10;;;0.90;99.90;;;;;;4933896;29;20613;-62
2022/12/14 11:20:33;;;;;;;4.30;4.10;;;1.00;99.90;;;;;;4934653;29;20212;-63
2022/12/14 11:23:07;;;;;;;4.80;4.50;;;1.10;99.90;;;;;;4935063;28;20661;-65
2022/12/14 11:25:38;;;;;;;4.33;4.07;;;1.10;99.90;;;;;;4928227;28;20708;-61
2022/12/14 11:28:18;;;;;;;4.93;4.63;;;1.10;99.90;;;;;;4932882;29;20227;-62
2022/12/14 11:30:55;;;;;;;4.77;4.47;;;1.00;99.90;;;;;;4955307;28;20240;-64
2022/12/14 11:33:23;;;;;;;5.20;4.90;;;1.00;99.90;;;;;;4935195;28;20261;-64
2022/12/14 11:35:51;;;;;;;5.50;5.20;;;1.10;99.90;;;;;;4955892;28;20575;-63
2022/12/14 11:38:18;;;;;;;5.17;4.87;;;1.10;99.90;;;;;;4938498;28;20232;-65
2022/12/14 11:40:47;;;;;;;5.10;4.80;;;1.00;99.90;;;;;;4932032;29;20573;-64
2022/12/14 11:43:25;;;;;;;5.13;4.83;;;1.00;99.90;;;;;;4932368;29;20210;-64
2022/12/14 11:45:53;;;;;;;5.50;5.20;;;1.00;99.90;;;;;;4933129;29;20294;-65
2022/12/14 11:48:22;;;;;;;5.50;5.20;;;1.00;99.90;;;;;;4931057;28;20228;-63
2022/12/14 11:50:51;;;;;;;5.60;5.30;;;1.00;99.90;;;;;;4929920;29;20231;-63
2022/12/14 11:53:20;;;;;;;5.60;5.30;;;1.10;99.90;;;;;;4932267;28;20230;-63
2022/12/14 11:55:53;;;;;;;5.67;5.27;;;1.20;99.90;;;;;;4931406;29;20209;-64
2022/12/14 11:58:23;;;;;;;5.40;5.10;;;1.10;99.90;;;;;;4932886;29;20228;-63
2022/12/14 12:00:57;;;;;;;5.20;4.90;;;1.20;99.90;;;;;;4943515;28;20196;-63
2022/12/14 12:03:27;;;;;;;5.07;4.77;;;1.20;99.90;;;;;;4938677;28;20630;-65
2022/12/14 12:05:59;;;;;;;5.60;5.30;;;1.20;99.90;;;;;;4930233;28;20196;-64
2022/12/14 12:08:28;;;;;;;5.30;5.00;;;1.20;99.90;;;;;;4938370;29;20223;-62
2022/12/14 12:10:59;;;;;;;6.17;5.77;;;1.20;99.90;;;;;;4936686;28;20247;-64
2022/12/14 12:13:30;;;;;;;4.90;4.60;;;1.20;99.90;;;;;;4936474;28;20292;-63
2022/12/14 12:16:00;;;;;;;6.10;5.70;;;1.20;99.90;;;;;;4940080;28;20197;-65
2022/12/14 12:18:32;;;;;;;5.73;5.43;;;1.20;99.90;;;;;;4932513;28;20226;-65
2022/12/14 12:21:04;;;;;;;5.80;5.40;;;1.20;99.90;;;;;;4930221;28;20207;-64
2022/12/14 12:23:38;;;;;;;5.33;5.03;;;1.20;99.90;;;;;;4934856;28;20211;-64
2022/12/14 12:26:14;;;;;;;5.00;4.70;;;1.20;99.90;;;;;;4931714;29;20205;-63
2022/12/14 12:28:46;;;;;;;4.90;4.60;;;1.30;99.90;;;;;;4932092;29;20318;-64
2022/12/14 12:31:21;;;;;;;4.70;4.43;;;1.40;99.90;;;;;;4931428;29;20218;-63
2022/12/14 12:33:52;;;;;;;5.37;5.07;;;1.60;99.90;;;;;;4931057;29;20204;-64
2022/12/14 12:36:21;;;;;;;4.90;4.60;;;1.70;99.90;;;;;;4932863;28;20208;-64
2022/12/14 12:39:05;;;;;;;5.00;4.70;;;1.60;99.90;;;;;;4932805;29;20228;-64
2022/12/14 12:41:41;;;;;;;5.17;4.87;;;1.80;99.90;;;;;;4932278;28;20204;-62
2022/12/14 12:44:27;;;;;;;4.70;4.40;;;1.70;99.90;;;;;;4932041;29;20212;-63
2022/12/14 12:47:04;;;;;;;5.27;4.97;;;1.70;99.90;;;;;;4932439;29;20234;-62
2022/12/14 12:49:33;;;;;;;5.03;4.73;;;1.60;99.90;;;;;;4929108;28;20604;-64
2022/12/14 12:52:02;;;;;;;5.37;5.07;;;1.60;99.90;;;;;;4924035;29;20236;-64
2022/12/14 12:54:33;;;;;;;5.30;5.00;;;1.70;99.90;;;;;;4928212;28;20728;-63
2022/12/14 12:57:04;;;;;;;5.33;5.03;;;1.80;99.90;;;;;;4926199;29;20732;-64
2022/12/14 12:59:37;;;;;;;5.83;5.43;;;1.60;99.90;;;;;;4931288;28;20204;-63
2022/12/14 13:02:19;;;;;;;5.60;5.30;;;1.50;99.90;;;;;;4933564;29;20263;-64
2022/12/14 13:04:50;;;;;;;5.60;5.27;;;1.40;99.90;;;;;;4930105;29;20214;-63
2022/12/14 13:07:25;;;;;;;5.17;4.87;;;1.40;99.90;;;;;;4926808;28;20709;-63
2022/12/14 13:09:58;;;;;;;5.30;5.00;;;1.30;99.90;;;;;;4936538;29;20211;-63
2022/12/14 13:12:33;;;;;;;5.73;5.40;;;1.20;99.90;;;;;;4930729;29;20220;-63
2022/12/14 13:15:02;;;;;;;4.87;4.57;;;1.20;99.90;;;;;;4931318;28;20203;-63
2022/12/14 13:17:37;;;;;;;6.07;5.67;;;1.30;99.90;;;;;;4927964;28;20236;-62
2022/12/14 13:20:08;;;;;;;5.03;4.73;;;1.30;99.90;;;;;;4933440;29;20200;-65
2022/12/14 13:22:37;;;;;;;5.37;5.00;;;1.40;99.90;;;;;;4931789;29;20291;-64
2022/12/14 13:25:13;;;;;;;5.47;5.17;;;1.40;99.90;;;;;;4932456;28;20223;-63
2022/12/14 13:28:02;;;;;;;5.50;5.20;;;1.40;99.90;;;;;;4931363;29;20350;-63
2022/12/14 13:30:48;;;;;;;6.13;5.73;;;1.20;99.90;;;;;;4930347;29;20200;-62